Time;durP1;ratioP1;P1;durP2;ratioP2;P2;SDS_P1;SDS_P2;PMS_P1;PMS_P2;Temp;Humidity;BMP_temperature;BMP_pressure;BME280_temperature;BME280_humidity;BME280_pressure;Samples;Min_cycle;Max_cycle;Signal;HPM_P1;HPM_P2
2022/05/24 00:01:58;;;;;;;54.67;25.80;;;;;;;9.12;100.00;99342.44;1666363;85;21117;-70
2022/05/24 00:04:25;;;;;;;59.03;29.10;;;;;;;9.06;100.00;99347.17;1666890;85;21514;-69
2022/05/24 00:06:53;;;;;;;50.70;24.30;;;;;;;8.99;100.00;99348.39;1693967;85;21030;-70
2022/05/24 00:09:20;;;;;;;52.97;26.00;;;;;;;8.91;100.00;99351.98;1694062;84;21031;-69
2022/05/24 00:11:47;;;;;;;72.80;33.00;;;;;;;8.85;100.00;99344.63;1623482;87;21540;-70
2022/05/24 00:14:14;;;;;;;204.17;77.67;;;;;;;8.80;100.00;99342.96;1641466;87;21063;-70
2022/05/24 00:16:42;;;;;;;304.43;118.37;;;;;;;8.76;100.00;99340.27;1626247;88;21044;-70
2022/05/24 00:19:09;;;;;;;375.07;144.43;;;;;;;8.72;100.00;99342.47;1626427;88;21047;-70
2022/05/24 00:21:36;;;;;;;313.77;129.97;;;;;;;8.71;100.00;99342.16;1626418;87;21094;-70
2022/05/24 00:24:05;;;;;;;279.83;116.97;;;;;;;8.68;100.00;99346.55;1625765;88;21043;-70
2022/05/24 00:26:33;;;;;;;268.80;112.80;;;;;;;8.64;100.00;99347.06;1607018;88;21028;-69
2022/05/24 00:28:59;;;;;;;166.97;72.07;;;;;;;8.60;100.00;99345.23;1618678;88;21007;-70
2022/05/24 00:31:26;;;;;;;72.37;33.43;;;;;;;8.54;100.00;99344.59;1608024;88;21585;-68
2022/05/24 00:33:54;;;;;;;27.20;12.20;;;;;;;8.48;100.00;99342.09;1627522;88;21039;-70
2022/05/24 00:36:22;;;;;;;23.13;10.43;;;;;;;8.39;100.00;99336.35;1627025;88;21066;-71
2022/05/24 00:38:52;;;;;;;27.70;11.23;;;;;;;8.31;100.00;99328.32;1625577;87;21604;-70
2022/05/24 00:41:26;;;;;;;26.07;10.07;;;;;;;8.22;100.00;99323.47;1627531;87;21031;-69
2022/05/24 00:44:04;;;;;;;23.90;9.90;;;;;;;8.14;100.00;99311.36;1625582;87;21077;-69
2022/05/24 00:46:59;;;;;;;24.90;10.00;;;;;;;8.05;100.00;99300.29;1602077;90;21059;-69
2022/05/24 00:49:39;;;;;;;24.97;10.23;;;;;;;7.98;100.00;99297.44;1625552;88;21027;-70
2022/05/24 00:52:33;;;;;;;32.57;14.93;;;;;;;7.90;100.00;99287.55;1627591;87;21118;-69
2022/05/24 00:55:00;;;;;;;;;;;;;;;7.83;100.00;99287.07;1579787;90;21092;-70
2022/05/24 00:57:37;;;;;;;28.70;11.90;;;;;;;7.74;100.00;99274.97;1597815;90;20140;-70
2022/05/24 01:00:11;;;;;;;30.37;12.70;;;;;;;7.68;100.00;99270.77;1568201;91;21077;-69
2022/05/24 01:02:38;;;;;;;36.90;15.53;;;;;;;7.61;100.00;99258.50;1543039;93;21644;-70
2022/05/24 01:05:08;;;;;;;42.20;17.23;;;;;;;7.56;100.00;99255.47;1533836;92;21161;-70
2022/05/24 01:07:36;;;;;;;42.90;18.50;;;;;;;7.51;100.00;99247.11;1533373;92;21089;-70
2022/05/24 01:10:12;;;;;;;50.50;22.90;;;;;;;7.46;100.00;99240.88;1570025;91;21134;-70
2022/05/24 01:12:53;;;;;;;49.23;21.03;;;;;;;7.41;100.00;99237.34;1535377;92;21131;-70
2022/05/24 01:15:20;;;;;;;39.83;18.27;;;;;;;7.33;100.00;99228.44;1553102;91;21085;-69
2022/05/24 01:17:48;;;;;;;30.97;14.00;;;;;;;7.27;100.00;99228.63;1547478;91;21580;-69
2022/05/24 01:20:15;;;;;;;32.03;13.37;;;;;;;7.25;100.00;99222.58;1576390;91;21118;-70
2022/05/24 01:23:20;;;;;;;84.17;32.93;;;;;;;7.28;100.00;99222.25;1527977;93;21052;-70
2022/05/24 01:26:21;;;;;;;150.27;57.23;;;;;;;7.41;100.00;99232.48;1562069;91;21067;-69
2022/05/24 01:28:59;;;;;;;193.70;70.93;;;;;;;7.57;100.00;99245.06;1561808;91;21130;-70
2022/05/24 01:36:09;;;;;;;255.17;86.00;;;;;;;7.71;100.00;99247.56;1562193;91;21144;-70
2022/05/24 01:36:42;;;;;;;221.73;81.33;;;;;;;7.88;100.00;99257.27;1562127;91;21069;-70
2022/05/24 01:39:11;;;;;;;154.17;54.27;;;;;;;7.97;100.00;99273.73;1550976;92;21063;-69
2022/05/24 01:41:47;;;;;;;123.23;46.23;;;;;;;8.03;100.00;99284.30;1582653;90;21570;-70
2022/05/24 01:44:15;;;;;;;148.30;56.50;;;;;;;8.06;100.00;99293.91;1582601;90;21114;-70
2022/05/24 01:46:44;;;;;;;144.37;54.17;;;;;;;8.08;100.00;99303.98;1556245;92;21114;-71
2022/05/24 01:49:18;;;;;;;145.23;53.00;;;;;;;8.06;100.00;99310.89;1585122;90;21153;-69
2022/05/24 01:52:18;;;;;;;141.57;52.43;;;;;;;8.03;100.00;99311.74;1468230;98;21710;-70
2022/05/24 01:54:50;;;;;;;120.90;43.23;;;;;;;7.98;100.00;99310.42;1492205;96;21094;-70
2022/05/24 01:57:28;;;;;;;112.80;40.70;;;;;;;7.92;100.00;99311.09;1485684;97;21547;-69
2022/05/24 01:59:56;;;;;;;85.20;33.90;;;;;;;7.87;100.00;99312.11;1485647;97;21618;-70
2022/05/24 02:02:23;;;;;;;80.27;30.67;;;;;;;7.84;100.00;99316.99;1485675;97;21170;-70
2022/05/24 02:04:50;;;;;;;73.10;28.30;;;;;;;7.80;100.00;99317.33;1485650;97;21139;-70
2022/05/24 02:07:20;;;;;;;68.20;26.10;;;;;;;7.77;100.00;99319.03;1485631;95;21647;-71
2022/05/24 02:09:54;;;;;;;41.60;17.47;;;;;;;7.75;100.00;99320.20;1524378;93;21111;-69
2022/05/24 02:12:38;;;;;;;26.87;11.00;;;;;;;7.71;100.00;99314.84;1511473;94;21058;-69
2022/05/24 02:15:11;;;;;;;30.20;11.80;;;;;;;7.66;100.00;99307.26;1528383;92;21102;-69
2022/05/24 02:17:58;;;;;;;27.50;10.53;;;;;;;7.57;100.00;99298.36;1525359;94;21613;-70
2022/05/24 02:20:30;;;;;;;19.70;7.87;;;;;;;7.52;100.00;99294.50;1510270;93;21124;-70
2022/05/24 02:22:57;;;;;;;22.03;7.10;;;;;;;7.46;100.00;99297.88;1470873;98;21666;-70
2022/05/24 02:25:54;;;;;;;18.77;7.57;;;;;;;7.45;100.00;99290.81;1470214;98;21092;-70
2022/05/24 02:28:29;;;;;;;17.40;6.77;;;;;;;7.43;100.00;99287.45;1455220;98;21225;-69
2022/05/24 02:31:01;;;;;;;19.20;8.17;;;;;;;7.41;100.00;99284.93;1449264;98;21220;-70
2022/05/24 02:33:28;;;;;;;21.93;8.40;;;;;;;7.39;100.00;99282.41;1442219;99;21198;-70
2022/05/24 02:35:57;;;;;;;20.20;7.47;;;;;;;7.39;100.00;99285.09;1398591;101;21120;-70
2022/05/24 02:38:24;;;;;;;19.40;8.03;;;;;;;7.41;100.00;99279.03;1414377;101;21197;-70
2022/05/24 02:43:37;;;;;;;20.37;7.90;;;;;;;7.41;100.00;99276.86;1398210;100;21670;-69
2022/05/24 02:46:06;;;;;;;17.87;8.07;;;;;;;7.40;100.00;99280.06;1425496;99;21156;-70
2022/05/24 02:48:36;;;;;;;18.70;7.67;;;;;;;7.41;100.00;99276.86;1406332;100;21232;-70
2022/05/24 02:51:09;;;;;;;16.83;6.90;;;;;;;7.40;100.00;99272.48;1436213;100;21097;-70
2022/05/24 02:53:38;;;;;;;17.43;7.07;;;;;;;7.42;100.00;99267.80;1436454;100;21647;-70
2022/05/24 02:56:06;;;;;;;18.50;7.63;;;;;;;7.43;100.00;99257.86;1480187;97;21082;-71
2022/05/24 02:58:33;;;;;;;19.70;7.90;;;;;;;7.43;100.00;99258.70;1509498;95;21083;-70
2022/05/24 03:01:02;;;;;;;18.33;7.27;;;;;;;7.44;100.00;99259.53;1525873;94;21103;-70
2022/05/24 03:03:30;;;;;;;15.13;6.13;;;;;;;7.45;100.00;99265.25;1533516;94;21103;-71
2022/05/24 03:05:57;;;;;;;12.47;5.67;;;;;;;7.46;100.00;99270.47;1533774;92;21564;-70
2022/05/24 03:11:13;;;;;;;14.67;5.10;;;;;;;7.55;100.00;99272.13;1533825;93;21605;-70
2022/05/24 03:16:26;;;;;;;10.90;4.77;;;;;;;7.64;100.00;99262.71;1553871;92;21558;-70
2022/05/24 03:18:54;;;;;;;10.40;4.97;;;;;;;7.70;100.00;99267.39;1539816;90;21123;-70
2022/05/24 03:21:23;;;;;;;16.40;5.50;;;;;;;7.76;100.00;99272.11;1594460;90;21168;-69
2022/05/24 03:23:50;;;;;;;20.10;6.20;;;;;;;7.85;100.00;99278.31;1594729;90;21072;-70
2022/05/24 03:26:17;;;;;;;20.00;5.87;;;;;;;7.92;100.00;99281.48;1575186;91;21131;-69
2022/05/24 03:28:46;;;;;;;22.47;6.57;;;;;;;8.03;100.00;99279.44;1641669;87;21067;-70
2022/05/24 03:31:15;;;;;;;16.07;6.17;;;;;;;8.13;100.00;99277.39;1643198;86;21070;-70
2022/05/24 03:33:42;;;;;;;18.03;6.40;;;;;;;8.23;100.00;99274.47;1641680;87;21035;-70
2022/05/24 03:36:12;;;;;;;31.13;7.00;;;;;;;8.35;100.00;99271.73;1643106;87;21536;-69
2022/05/24 03:38:40;;;;;;;19.07;6.87;;;;;;;8.47;100.00;99274.39;1640450;87;21087;-70
2022/05/24 03:41:08;;;;;;;24.43;7.73;;;;;;;8.63;100.00;99270.77;1652036;87;21114;-69
2022/05/24 03:43:36;;;;;;;26.67;8.83;;;;;;;8.81;100.00;99260.22;1642187;87;21070;-71
2022/05/24 03:46:08;;;;;;;33.53;12.90;;;;;;;8.98;100.00;99254.19;1642490;87;21051;-69
2022/05/24 03:48:35;;;;;;;23.23;9.27;;;;;;;9.15;100.00;99252.22;1642664;86;21066;-69
2022/05/24 03:51:02;;;;;;;22.67;9.10;;;;;;;9.30;100.00;99257.98;1652184;87;21508;-69
2022/05/24 03:53:29;;;;;;;22.50;8.47;;;;;;;9.47;100.00;99268.63;1652831;87;21047;-70
2022/05/24 03:55:56;;;;;;;23.17;8.93;;;;;;;9.64;100.00;99281.47;1652158;86;21078;-70
2022/05/24 03:58:24;;;;;;;25.60;9.73;;;;;;;9.81;100.00;99294.27;1640711;87;21055;-70
2022/05/24 04:00:54;;;;;;;21.10;7.90;;;;;;;9.99;100.00;99316.38;1642040;86;21079;-70
2022/05/24 04:03:21;;;;;;;21.10;7.57;;;;;;;10.16;100.00;99335.10;1642228;87;21055;-70
2022/05/24 04:05:51;;;;;;;19.48;7.17;;;;;;;10.32;100.00;99345.75;1593546;89;21079;-70
2022/05/24 04:08:24;;;;;;;17.90;7.00;;;;;;;10.47;100.00;99348.47;1576305;91;21142;-70
2022/05/24 04:11:05;;;;;;;16.40;5.87;;;;;;;10.61;100.00;99355.72;1645736;86;21118;-70
2022/05/24 04:13:32;;;;;;;18.45;7.35;;;;;;;10.75;100.00;99356.73;1642077;87;21068;-72
2022/05/24 04:15:59;;;;;;;17.95;6.40;;;;;;;10.90;100.00;99349.94;1627031;88;21018;-70
2022/05/24 04:18:26;;;;;;;14.47;6.33;;;;;;;11.05;100.00;99347.70;1605338;88;21054;-70
2022/05/24 04:20:54;;;;;;;15.70;6.15;;;;;;;11.22;100.00;99350.50;1626800;88;21038;-71
2022/05/24 04:23:22;;;;;;;14.10;6.35;;;;;;;11.46;100.00;99343.05;1626679;88;21034;-70
2022/05/24 04:25:49;;;;;;;12.05;5.87;;;;;;;11.70;100.00;99343.97;1605213;88;21046;-70
2022/05/24 04:28:19;;;;;;;12.80;5.60;;;;;;;11.95;100.00;99351.70;1605189;88;21582;-71
2022/05/24 04:30:48;;;;;;;11.50;5.50;;;;;;;12.18;100.00;99369.06;1626739;88;21078;-71
2022/05/24 04:33:16;;;;;;;11.57;5.20;;;;;;;12.40;100.00;99375.27;1613900;89;21075;-70
2022/05/24 04:35:45;;;;;;;12.58;5.42;;;;;;;12.64;100.00;99390.73;1572954;91;21155;-71
2022/05/24 04:38:12;;;;;;;13.90;5.65;;;;;;;12.80;100.00;99406.69;1573031;91;21564;-70
2022/05/24 04:43:25;;;;;;;13.93;6.17;;;;;;;13.20;100.00;99425.02;1573110;91;21552;-71
2022/05/24 04:45:53;;;;;;;12.45;5.12;;;;;;;13.45;100.00;99430.76;1572751;91;21044;-71
2022/05/24 04:48:21;;;;;;;9.10;4.30;;;;;;;13.69;100.00;99432.08;1572754;91;21047;-70
2022/05/24 04:50:53;;;;;;;10.18;4.50;;;;;;;13.93;100.00;99452.37;1572594;91;21095;-71
2022/05/24 04:53:20;;;;;;;9.55;4.80;;;;;;;14.18;100.00;99465.36;1572800;91;21062;-71
2022/05/24 04:55:50;;;;;;;9.30;4.60;;;;;;;14.43;100.00;99471.03;1572875;91;21094;-71
2022/05/24 04:58:17;;;;;;;8.33;4.28;;;;;;;14.63;100.00;99477.83;1572947;91;21032;-73
2022/05/24 05:00:45;;;;;;;16.45;4.50;;;;;;;14.78;100.00;99483.03;1572649;91;21584;-70
2022/05/24 05:03:14;;;;;;;8.93;4.42;;;;;;;14.94;100.00;99483.96;1572664;91;21572;-71
2022/05/24 05:05:43;;;;;;;10.00;4.42;;;;;;;15.13;100.00;99486.83;1572764;91;21620;-70
2022/05/24 05:08:10;;;;;;;10.13;4.25;;;;;;;15.32;100.00;99487.81;1574957;88;21158;-72
2022/05/24 05:10:37;;;;;;;11.22;4.75;;;;;;;15.52;100.00;99493.17;1620306;88;21102;-70
2022/05/24 05:13:05;;;;;;;11.05;4.62;;;;;;;15.69;100.00;99505.78;1599809;89;21055;-70
2022/05/24 05:15:34;;;;;;;13.70;4.90;;;;;;;15.91;100.00;99514.48;1597686;89;21030;-70
2022/05/24 05:18:07;;;;;;;12.98;4.70;;;;;;;16.15;100.00;99507.42;1577516;90;21725;-72
2022/05/24 05:20:39;;;;;;;88.33;70.78;;;;;;;16.44;100.00;99510.55;1530204;93;21122;-73
2022/05/24 05:23:07;;;;;;;25.00;16.32;;;;;;;16.68;100.00;99518.45;1560614;92;21083;-72
2022/05/24 05:25:34;;;;;;;22.27;13.68;;;;;;;16.87;100.00;99531.11;1539443;92;21086;-73
2022/05/24 05:28:02;;;;;;;10.90;4.97;;;;;;;17.08;100.00;99524.89;1512658;95;21337;-73
2022/05/24 05:33:16;;;;;;;17.82;10.05;;;;;;;17.48;100.00;99534.56;1566268;92;21122;-69
2022/05/24 05:35:45;;;;;;;7.33;3.83;;;;;;;17.64;95.96;99529.83;1566559;92;21089;-73
2022/05/24 05:38:12;;;;;;;8.95;4.37;;;;;;;17.78;91.37;99531.87;1566219;92;21070;-72
2022/05/24 05:40:39;;;;;;;9.70;4.85;;;;;;;17.94;90.54;99534.52;1565761;92;21038;-71
2022/05/24 05:43:06;;;;;;;43.75;23.32;;;;;;;18.16;85.23;99533.45;1546208;92;21110;-73
2022/05/24 05:45:33;;;;;;;23.02;10.95;;;;;;;18.31;76.07;99526.17;1527047;92;21595;-73
2022/05/24 05:48:00;;;;;;;13.30;5.55;;;;;;;18.49;78.80;99529.39;1546080;92;21133;-72
2022/05/24 05:50:27;;;;;;;32.38;5.65;;;;;;;18.69;77.38;99523.56;1566199;92;21074;-72
2022/05/24 05:52:54;;;;;;;19.77;4.60;;;;;;;18.88;75.25;99527.89;1537020;93;21084;-72
2022/05/24 05:55:22;;;;;;;10.18;4.00;;;;;;;19.03;72.56;99523.84;1516596;92;21092;-73
2022/05/24 05:57:49;;;;;;;7.12;3.27;;;;;;;19.11;66.58;99527.05;1535513;93;21577;-72
2022/05/24 06:00:18;;;;;;;15.98;4.45;;;;;;;19.28;65.22;99525.79;1516005;93;21143;-73
2022/05/24 06:02:46;;;;;;;8.00;3.60;;;;;;;19.48;61.04;99517.70;1518592;93;21159;-73
2022/05/24 06:05:13;;;;;;;6.42;2.92;;;;;;;19.66;61.66;99524.38;1527138;93;21598;-72
2022/05/24 06:07:42;;;;;;;9.75;3.45;;;;;;;19.88;59.26;99523.73;1520036;93;21186;-73
2022/05/24 06:10:10;;;;;;;7.30;3.52;;;;;;;19.85;54.10;99522.32;1512488;95;21140;-73
2022/05/24 06:12:38;;;;;;;13.78;3.83;;;;;;;19.77;56.00;99522.70;1513171;92;21112;-73
2022/05/24 06:15:06;;;;;;;8.38;3.60;;;;;;;19.91;55.92;99530.10;1599887;89;21104;-72
2022/05/24 06:17:43;;;;;;;10.00;3.50;;;;;;;20.13;55.43;99536.27;1667186;84;21031;-71
2022/05/24 06:20:14;;;;;;;11.43;4.22;;;;;;;20.27;53.58;99532.12;1698975;84;21121;-72
2022/05/24 06:22:42;;;;;;;11.40;4.00;;;;;;;20.50;54.52;99538.02;1680900;84;21109;-70
2022/05/24 06:25:09;;;;;;;11.08;5.20;;;;;;;20.70;55.46;99545.81;1704027;84;21044;-73
2022/05/24 06:27:37;;;;;;;7.72;4.80;;;;;;;20.93;53.41;99532.95;1703991;83;21148;-72
2022/05/24 06:30:06;;;;;;;40.75;29.92;;;;;;;21.02;50.12;99531.47;1713083;84;21101;-71
2022/05/24 06:32:34;;;;;;;11.45;5.92;;;;;;;21.11;49.22;99535.45;1713478;83;21002;-72
2022/05/24 06:35:03;;;;;;;14.35;6.17;;;;;;;21.24;46.07;99538.38;1713192;83;21064;-74
2022/05/24 06:37:30;;;;;;;10.82;4.35;;;;;;;21.22;44.61;99532.30;1693183;84;21087;-73
2022/05/24 06:39:57;;;;;;;7.42;3.52;;;;;;;21.20;47.56;99540.80;1713550;83;21051;-71
2022/05/24 06:42:26;;;;;;;50.78;43.17;;;;;;;21.29;47.82;99539.00;1713691;83;21055;-72
2022/05/24 06:44:53;;;;;;;22.98;15.63;;;;;;;21.29;45.95;99544.49;1692600;84;21090;-70
2022/05/24 06:47:20;;;;;;;18.20;11.12;;;;;;;21.34;45.45;99543.19;1713698;83;21018;-72
2022/05/24 06:49:47;;;;;;;18.77;11.85;;;;;;;21.37;43.52;99543.52;1713256;83;21098;-71
2022/05/24 06:52:16;;;;;;;17.75;9.80;;;;;;;21.32;42.66;99546.19;1689441;83;21117;-73
2022/05/24 06:54:43;;;;;;;8.35;4.67;;;;;;;21.34;44.35;99538.52;1687178;84;21590;-72
2022/05/24 06:57:10;;;;;;;9.15;3.80;;;;;;;21.53;42.87;99525.33;1657142;85;21022;-72
2022/05/24 07:02:25;;;;;;;169.68;137.57;;;;;;;21.64;41.60;99533.16;1650501;86;21039;-73
2022/05/24 07:04:59;;;;;;;18.15;10.13;;;;;;;21.73;42.70;99530.23;1664484;85;21537;-71
2022/05/24 07:07:27;;;;;;;10.58;4.53;;;;;;;21.93;43.30;99528.80;1673903;85;21581;-72
2022/05/24 07:09:55;;;;;;;7.58;3.75;;;;;;;22.16;41.91;99534.55;1673651;86;21109;-73
2022/05/24 07:12:23;;;;;;;18.25;11.73;;;;;;;22.29;41.14;99528.67;1672185;85;21693;-72
2022/05/24 07:14:50;;;;;;;16.27;8.78;;;;;;;22.37;40.35;99526.80;1638748;87;21102;-72
2022/05/24 07:17:17;;;;;;;8.65;3.75;;;;;;;22.47;40.11;99531.58;1625859;88;21090;-72
2022/05/24 07:19:45;;;;;;;12.82;6.70;;;;;;;22.59;40.07;99530.56;1598014;89;21129;-70
2022/05/24 07:22:12;;;;;;;12.18;6.62;;;;;;;22.73;40.07;99529.02;1577454;89;21524;-70
2022/05/24 07:24:39;;;;;;;11.08;6.47;;;;;;;22.54;37.65;99532.19;1591619;89;21083;-71
2022/05/24 07:27:13;;;;;;;8.60;4.50;;;;;;;22.17;38.32;99537.05;1618594;88;21103;-70
2022/05/24 07:29:41;;;;;;;14.00;7.10;;;;;;;21.83;38.06;99530.06;1588636;89;21032;-69
2022/05/24 07:32:09;;;;;;;12.15;4.42;;;;;;;21.15;39.29;99540.72;1597147;89;21134;-71
2022/05/24 07:34:36;;;;;;;10.88;4.62;;;;;;;20.59;39.42;99548.05;1613322;89;21071;-70
2022/05/24 07:37:05;;;;;;;126.07;110.03;;;;;;;20.16;40.71;99544.02;1589467;89;21012;-71
2022/05/24 07:39:32;;;;;;;19.32;10.30;;;;;;;20.05;42.80;99541.07;1589476;88;21070;-72
2022/05/24 07:47:34;;;;;;;7.85;4.30;;;;;;;21.47;42.81;99537.33;1610464;89;21075;-70
2022/05/24 07:50:01;;;;;;;10.15;4.60;;;;;;;21.64;42.00;99535.05;1612521;89;21047;-71
2022/05/24 07:52:28;;;;;;;11.43;3.90;;;;;;;21.84;42.56;99529.80;1611114;89;21130;-73
2022/05/24 07:54:55;;;;;;;8.00;3.55;;;;;;;22.17;42.04;99524.66;1610770;89;21083;-71
2022/05/24 07:57:22;;;;;;;7.50;3.92;;;;;;;22.56;42.40;99526.42;1610646;88;21103;-71
2022/05/24 07:59:50;;;;;;;10.88;3.83;;;;;;;22.79;41.15;99523.00;1610522;89;21060;-72
2022/05/24 08:02:19;;;;;;;6.90;3.27;;;;;;;23.03;40.78;99519.31;1589246;89;21091;-71
2022/05/24 08:04:46;;;;;;;10.08;3.75;;;;;;;23.18;39.29;99515.83;1528621;93;21137;-71
2022/05/24 08:07:13;;;;;;;8.68;3.50;;;;;;;23.01;39.74;99513.23;1539742;93;21088;-73
2022/05/24 08:09:42;;;;;;;8.45;3.90;;;;;;;22.78;39.22;99518.59;1557839;91;21152;-71
2022/05/24 08:12:09;;;;;;;14.90;7.62;;;;;;;22.50;40.05;99521.39;1557345;91;21097;-72
2022/05/24 08:14:37;;;;;;;7.25;4.20;;;;;;;22.00;40.06;99525.30;1582992;89;21763;-72
2022/05/24 08:17:04;;;;;;;6.85;3.80;;;;;;;21.68;42.90;99518.34;1585675;89;21749;-70
2022/05/24 08:19:32;;;;;;;14.35;5.72;;;;;;;21.77;43.94;99514.86;1565594;89;21057;-71
2022/05/24 08:21:59;;;;;;;8.33;4.87;;;;;;;21.83;44.98;99518.50;1585595;89;21098;-73
2022/05/24 08:24:26;;;;;;;12.20;7.90;;;;;;;21.86;44.98;99516.61;1597418;89;21113;-71
2022/05/24 08:26:53;;;;;;;15.40;7.42;;;;;;;21.85;44.16;99519.09;1589482;89;21043;-71
2022/05/24 08:29:20;;;;;;;30.30;8.50;;;;;;;21.71;42.53;99519.19;1598109;89;21059;-72
2022/05/24 08:31:49;;;;;;;12.63;5.00;;;;;;;21.38;42.75;99522.34;1611344;89;21149;-70
2022/05/24 08:34:17;;;;;;;7.67;4.65;;;;;;;21.13;44.22;99524.20;1610637;88;21110;-67
2022/05/24 08:36:44;;;;;;;6.70;4.60;;;;;;;20.95;45.06;99522.02;1585693;89;21078;-74
2022/05/24 08:39:11;;;;;;;7.20;4.58;;;;;;;20.78;44.60;99529.45;1610294;89;21097;-71
2022/05/24 08:42:13;;;;;;;9.95;6.25;;;;;;;20.56;44.13;99523.86;1565353;89;21109;-71
2022/05/24 08:50:19;;;;;;;8.58;5.00;;;;;;;20.25;44.18;99528.25;1584637;90;21148;-72
2022/05/24 08:52:54;;;;;;;15.75;7.05;;;;;;;20.22;45.72;99520.53;1585128;90;21120;-72
2022/05/24 08:55:23;;;;;;;8.60;4.70;;;;;;;20.57;46.75;99523.58;1569047;91;21135;-71
2022/05/24 08:57:53;;;;;;;11.57;4.90;;;;;;;21.08;45.15;99513.95;1568471;91;21164;-72
2022/05/24 09:00:27;;;;;;;12.10;7.05;;;;;;;21.66;46.13;99508.97;1568770;91;21083;-72
2022/05/24 09:02:54;;;;;;;14.55;7.45;;;;;;;22.35;46.13;99506.95;1516591;94;21668;-70
2022/05/24 09:05:32;;;;;;;10.45;6.03;;;;;;;23.10;42.38;99503.39;1494615;96;21127;-72
2022/05/24 09:08:27;;;;;;;14.73;6.50;;;;;;;23.62;39.91;99501.70;1495011;96;21103;-70
2022/05/24 09:11:02;;;;;;;14.75;5.75;;;;;;;23.91;38.38;99494.38;1494680;96;21635;-70
2022/05/24 09:14:15;;;;;;;14.25;9.00;;;;;;;24.04;36.15;99504.89;1474333;97;21152;-72
2022/05/24 09:16:54;;;;;;;16.67;6.47;;;;;;;24.04;36.35;99503.50;1503027;95;21547;-71
2022/05/24 09:19:27;;;;;;;14.93;7.20;;;;;;;24.40;35.99;99506.30;1480730;97;21121;-72
2022/05/24 09:21:55;;;;;;;12.10;5.83;;;;;;;24.55;34.57;99494.47;1485570;96;21114;-69
2022/05/24 09:24:43;;;;;;;13.78;7.50;;;;;;;24.61;34.57;99502.48;1484273;96;21131;-71
2022/05/24 09:27:22;;;;;;;14.47;7.05;;;;;;;24.49;33.45;99498.30;1462975;98;21568;-70
2022/05/24 09:30:08;;;;;;;17.27;8.50;;;;;;;24.14;33.36;99506.85;1463438;97;21154;-70
2022/05/24 09:32:44;;;;;;;13.35;6.92;;;;;;;23.58;34.30;99508.86;1485408;97;21813;-70
2022/05/24 09:35:24;;;;;;;11.43;5.30;;;;;;;22.99;36.21;99501.66;1485559;97;21157;-71
2022/05/24 09:38:13;;;;;;;14.10;5.50;;;;;;;22.73;37.95;99503.70;1487850;96;21099;-71
2022/05/24 09:40:54;;;;;;;19.35;9.43;;;;;;;22.96;38.88;99499.42;1522219;94;21066;-71
2022/05/24 09:43:33;;;;;;;11.93;5.28;;;;;;;23.50;38.44;99495.05;1481698;94;21074;-70
2022/05/24 09:46:22;;;;;;;19.60;10.00;;;;;;;23.70;36.36;99497.86;1520845;94;21082;-71
2022/05/24 09:49:04;;;;;;;11.88;6.53;;;;;;;23.61;35.77;99494.53;1499390;96;21111;-70
2022/05/24 09:51:38;;;;;;;11.00;7.37;;;;;;;23.11;36.20;99501.75;1504987;95;21094;-73
2022/05/24 09:54:20;;;;;;;14.60;6.17;;;;;;;22.75;36.69;99508.39;1459199;97;21124;-70
2022/05/24 09:57:08;;;;;;;13.10;7.83;;;;;;;22.85;38.48;99500.72;1440535;98;21169;-70
2022/05/24 09:59:37;;;;;;;16.15;10.40;;;;;;;23.26;36.88;99502.38;1434677;97;21059;-70
2022/05/24 10:02:29;;;;;;;20.50;7.03;;;;;;;23.51;36.43;99492.55;1521057;94;21118;-69
2022/05/24 10:04:56;;;;;;;23.60;6.03;;;;;;;23.48;35.79;99490.36;1509521;94;21130;-71
2022/05/24 10:07:31;;;;;;;12.28;6.25;;;;;;;23.68;36.67;99489.59;1509469;94;21059;-69
2022/05/24 10:10:12;;;;;;;20.80;10.32;;;;;;;24.09;37.18;99496.61;1483011;96;21065;-72
2022/05/24 10:12:48;;;;;;;14.80;8.35;;;;;;;24.39;34.93;99496.38;1483030;96;21687;-73
2022/05/24 10:15:39;;;;;;;15.85;6.45;;;;;;;24.31;34.92;99490.85;1478013;96;21595;-70
2022/05/24 10:18:26;;;;;;;12.00;6.25;;;;;;;24.41;35.53;99496.36;1480589;96;21094;-70
2022/05/24 10:21:29;;;;;;;11.10;5.35;;;;;;;24.70;34.55;99498.61;1480316;96;21151;-72
2022/05/24 10:24:01;;;;;;;24.18;15.78;;;;;;;24.79;34.43;99494.17;1498892;96;21627;-70
2022/05/24 10:26:41;;;;;;;;;;;;;;;24.73;34.24;99495.84;1467884;96;21120;-70
2022/05/24 10:29:36;;;;;;;6.95;4.53;;;;;;;24.88;34.56;99491.67;1482560;97;20495;-68
2022/05/24 10:38:17;;;;;;;10.82;4.50;;;;;;;24.92;34.74;99491.38;1490476;96;21706;-70
2022/05/24 10:38:21;;;;;;;12.90;4.37;;;;;;;24.02;35.95;99489.15;1434847;98;21124;-70
2022/05/24 10:40:56;;;;;;;7.97;4.62;;;;;;;24.22;37.06;99498.86;1451330;98;21221;-70
2022/05/24 10:43:56;;;;;;;6.75;4.00;;;;;;;24.52;36.09;99501.33;1434357;99;21061;-69
2022/05/24 10:46:31;;;;;;;7.62;4.10;;;;;;;24.36;35.39;99496.35;1426953;99;21070;-69
2022/05/24 10:49:09;;;;;;;10.10;5.50;;;;;;;24.04;36.63;99498.80;1451329;99;21089;-69
2022/05/24 10:51:48;;;;;;;7.65;4.35;;;;;;;24.31;38.03;99495.53;1506502;94;21250;-68
2022/05/24 10:54:45;;;;;;;18.57;4.83;;;;;;;24.75;37.24;99501.91;1522243;94;21420;-69
2022/05/24 10:57:24;;;;;;;12.55;4.05;;;;;;;24.83;37.00;99509.66;1520661;94;21162;-70
2022/05/24 11:00:16;;;;;;;9.98;3.90;;;;;;;24.61;36.20;99507.16;1522492;94;21023;-70
2022/05/24 11:03:02;;;;;;;8.93;5.30;;;;;;;24.39;35.33;99499.95;1503045;93;21109;-72
2022/05/24 11:05:59;;;;;;;12.05;6.55;;;;;;;24.17;36.57;99507.13;1524951;94;21088;-69
2022/05/24 11:08:48;;;;;;;10.20;6.10;;;;;;;23.91;36.56;99504.05;1524014;94;21180;-70
2022/05/24 11:11:54;;;;;;;9.15;4.42;;;;;;;23.72;36.26;99505.05;1525098;94;21108;-69
2022/05/24 11:14:29;;;;;;;9.53;3.85;;;;;;;23.76;37.11;99504.25;1531851;93;21080;-70
2022/05/24 11:16:56;;;;;;;8.33;5.80;;;;;;;23.78;35.68;99495.15;1543382;92;21592;-70
2022/05/24 11:19:31;;;;;;;5.85;3.95;;;;;;;23.54;36.46;99493.95;1544107;93;21076;-70
2022/05/24 11:22:18;;;;;;;9.83;4.70;;;;;;;23.34;36.23;99498.81;1544960;92;21537;-70
2022/05/24 11:25:16;;;;;;;12.28;4.67;;;;;;;23.33;36.87;99491.66;1607545;89;21570;-70
2022/05/24 11:28:07;;;;;;;8.45;5.80;;;;;;;23.31;35.04;99492.74;1581459;90;21547;-72
2022/05/24 11:30:40;;;;;;;7.03;4.83;;;;;;;22.93;34.27;99487.02;1553086;92;21127;-70
2022/05/24 11:33:12;;;;;;;6.15;3.70;;;;;;;22.89;35.27;99490.00;1581003;91;21648;-69
2022/05/24 11:35:52;;;;;;;7.37;3.50;;;;;;;22.96;34.81;99496.11;1580273;90;21121;-71
2022/05/24 11:38:25;;;;;;;12.40;5.85;;;;;;;22.79;34.34;99494.06;1581320;91;21114;-71
2022/05/24 11:41:12;;;;;;;8.50;4.25;;;;;;;22.55;35.06;99502.16;1592213;89;21587;-69
2022/05/24 11:43:46;;;;;;;13.10;4.50;;;;;;;22.61;36.46;99498.92;1580896;89;21069;-71
2022/05/24 11:46:39;;;;;;;11.45;4.92;;;;;;;23.01;37.42;99492.00;1581563;89;21084;-70
2022/05/24 11:49:24;;;;;;;10.95;5.37;;;;;;;23.08;35.81;99500.08;1581857;89;21582;-68
2022/05/24 11:51:53;;;;;;;8.30;5.45;;;;;;;22.78;37.36;99491.04;1581237;89;21120;-73
2022/05/24 11:54:25;;;;;;;14.00;4.08;;;;;;;22.74;37.48;99481.09;1575225;90;21058;-69
2022/05/24 11:57:07;;;;;;;8.80;4.80;;;;;;;22.42;37.32;99501.79;1602962;89;21030;-72
2022/05/24 11:59:46;;;;;;;8.35;5.25;;;;;;;21.99;37.51;99507.11;1581216;89;21157;-71
2022/05/24 12:08:05;;;;;;;9.45;4.60;;;;;;;21.46;40.50;99498.56;1550382;92;21128;-71
2022/05/24 12:10:52;;;;;;;19.82;12.55;;;;;;;21.61;40.58;99498.72;1555192;90;21276;-72
2022/05/24 12:13:31;;;;;;;10.23;4.83;;;;;;;21.99;41.89;99498.85;1537405;92;21133;-70
2022/05/24 12:16:02;;;;;;;8.63;5.10;;;;;;;22.18;40.47;99500.70;1540381;93;21125;-72
2022/05/24 12:18:46;;;;;;;9.25;4.60;;;;;;;21.92;38.95;99500.46;1540803;93;21141;-72
2022/05/24 12:21:35;;;;;;;10.08;6.42;;;;;;;21.60;39.57;99494.33;1543259;92;21092;-72
2022/05/24 12:24:30;;;;;;;9.53;6.05;;;;;;;21.85;40.71;99488.83;1552788;92;21134;-69
2022/05/24 12:27:30;;;;;;;10.18;5.90;;;;;;;22.46;40.36;99489.97;1556396;92;21165;-72
2022/05/24 12:30:21;;;;;;;7.72;4.55;;;;;;;22.97;38.36;99477.10;1554009;92;21154;-71
2022/05/24 12:32:49;;;;;;;11.27;4.50;;;;;;;23.44;35.70;99474.89;1534700;92;21551;-71